sensor_id;sensor_type;location;lat;lon;timestamp;P1;durP1;ratioP1;P2;durP2;ratioP2
56455;SDS011;42354;53.218;6.564;2022-07-30T00:00:47;15.88;;;7.53;;
56455;SDS011;42354;53.218;6.564;2022-07-30T00:03:12;14.43;;;8.85;;
56455;SDS011;42354;53.218;6.564;2022-07-30T00:05:38;21.60;;;10.10;;
56455;SDS011;42354;53.218;6.564;2022-07-30T00:08:03;13.90;;;9.20;;
56455;SDS011;42354;53.218;6.564;2022-07-30T00:10:29;18.90;;;8.77;;
56455;SDS011;42354;53.218;6.564;2022-07-30T00:12:54;19.17;;;8.93;;
56455;SDS011;42354;53.218;6.564;2022-07-30T00:15:21;15.30;;;8.25;;
56455;SDS011;42354;53.218;6.564;2022-07-30T00:17:47;13.77;;;8.55;;
56455;SDS011;42354;53.218;6.564;2022-07-30T00:20:12;20.40;;;8.73;;
56455;SDS011;42354;53.218;6.564;2022-07-30T00:22:37;18.90;;;8.60;;
56455;SDS011;42354;53.218;6.564;2022-07-30T00:25:03;12.10;;;8.25;;
56455;SDS011;42354;53.218;6.564;2022-07-30T00:27:29;14.35;;;8.15;;
56455;SDS011;42354;53.218;6.564;2022-07-30T00:29:58;12.40;;;7.38;;
56455;SDS011;42354;53.218;6.564;2022-07-30T00:32:24;11.65;;;8.10;;
56455;SDS011;42354;53.218;6.564;2022-07-30T00:34:49;17.73;;;8.98;;
56455;SDS011;42354;53.218;6.564;2022-07-30T00:37:15;18.85;;;10.10;;
56455;SDS011;42354;53.218;6.564;2022-07-30T00:39:40;21.25;;;10.82;;
56455;SDS011;42354;53.218;6.564;2022-07-30T00:42:06;17.98;;;11.02;;
56455;SDS011;42354;53.218;6.564;2022-07-30T00:44:31;20.05;;;11.77;;
56455;SDS011;42354;53.218;6.564;2022-07-30T00:46:57;19.80;;;13.02;;
56455;SDS011;42354;53.218;6.564;2022-07-30T00:49:22;14.95;;;10.07;;
56455;SDS011;42354;53.218;6.564;2022-07-30T00:51:48;16.05;;;9.00;;
56455;SDS011;42354;53.218;6.564;2022-07-30T00:54:13;13.93;;;10.20;;
56455;SDS011;42354;53.218;6.564;2022-07-30T00:56:39;22.95;;;12.68;;
56455;SDS011;42354;53.218;6.564;2022-07-30T00:59:05;20.98;;;13.85;;
56455;SDS011;42354;53.218;6.564;2022-07-30T01:01:31;30.85;;;14.27;;
56455;SDS011;42354;53.218;6.564;2022-07-30T01:03:57;28.27;;;15.13;;
56455;SDS011;42354;53.218;6.564;2022-07-30T01:06:22;29.17;;;16.20;;
56455;SDS011;42354;53.218;6.564;2022-07-30T01:08:48;28.17;;;16.10;;
56455;SDS011;42354;53.218;6.564;2022-07-30T01:11:13;31.88;;;16.88;;
56455;SDS011;42354;53.218;6.564;2022-07-30T01:13:40;31.52;;;18.00;;
56455;SDS011;42354;53.218;6.564;2022-07-30T01:16:06;27.00;;;16.35;;
56455;SDS011;42354;53.218;6.564;2022-07-30T01:18:33;25.88;;;14.77;;
56455;SDS011;42354;53.218;6.564;2022-07-30T01:21:17;20.20;;;14.25;;
56455;SDS011;42354;53.218;6.564;2022-07-30T01:23:47;20.70;;;13.82;;
56455;SDS011;42354;53.218;6.564;2022-07-30T01:26:17;22.42;;;12.95;;
56455;SDS011;42354;53.218;6.564;2022-07-30T01:28:45;19.02;;;11.57;;
56455;SDS011;42354;53.218;6.564;2022-07-30T01:31:15;21.58;;;12.35;;
56455;SDS011;42354;53.218;6.564;2022-07-30T01:33:44;19.10;;;11.80;;
56455;SDS011;42354;53.218;6.564;2022-07-30T01:36:13;21.40;;;11.80;;
56455;SDS011;42354;53.218;6.564;2022-07-30T01:38:40;26.75;;;12.43;;
56455;SDS011;42354;53.218;6.564;2022-07-30T01:41:08;16.50;;;10.65;;
56455;SDS011;42354;53.218;6.564;2022-07-30T01:43:34;19.98;;;11.25;;
56455;SDS011;42354;53.218;6.564;2022-07-30T01:46:01;19.25;;;10.77;;
56455;SDS011;42354;53.218;6.564;2022-07-30T01:48:27;17.98;;;10.65;;
56455;SDS011;42354;53.218;6.564;2022-07-30T01:50:55;15.48;;;9.35;;
56455;SDS011;42354;53.218;6.564;2022-07-30T01:53:25;18.05;;;10.30;;
56455;SDS011;42354;53.218;6.564;2022-07-30T01:55:54;20.92;;;11.25;;
56455;SDS011;42354;53.218;6.564;2022-07-30T01:58:22;15.65;;;10.02;;
56455;SDS011;42354;53.218;6.564;2022-07-30T02:00:50;17.83;;;10.50;;
56455;SDS011;42354;53.218;6.564;2022-07-30T02:03:18;19.40;;;10.63;;
56455;SDS011;42354;53.218;6.564;2022-07-30T02:05:44;17.90;;;10.98;;
56455;SDS011;42354;53.218;6.564;2022-07-30T02:10:59;17.13;;;10.18;;
56455;SDS011;42354;53.218;6.564;2022-07-30T02:13:30;20.00;;;11.38;;
56455;SDS011;42354;53.218;6.564;2022-07-30T02:16:12;16.27;;;10.30;;
56455;SDS011;42354;53.218;6.564;2022-07-30T02:18:50;16.98;;;9.70;;
56455;SDS011;42354;53.218;6.564;2022-07-30T02:21:21;15.25;;;10.27;;
56455;SDS011;42354;53.218;6.564;2022-07-30T02:23:48;17.65;;;10.98;;
56455;SDS011;42354;53.218;6.564;2022-07-30T02:26:17;16.40;;;10.68;;
56455;SDS011;42354;53.218;6.564;2022-07-30T02:28:46;16.58;;;10.20;;
56455;SDS011;42354;53.218;6.564;2022-07-30T02:31:18;20.60;;;10.98;;
56455;SDS011;42354;53.218;6.564;2022-07-30T02:33:47;15.25;;;10.25;;
56455;SDS011;42354;53.218;6.564;2022-07-30T02:36:14;17.30;;;10.23;;
56455;SDS011;42354;53.218;6.564;2022-07-30T02:38:41;17.52;;;10.00;;
56455;SDS011;42354;53.218;6.564;2022-07-30T02:41:08;19.92;;;9.73;;
56455;SDS011;42354;53.218;6.564;2022-07-30T02:43:36;18.13;;;9.50;;
56455;SDS011;42354;53.218;6.564;2022-07-30T02:46:04;16.90;;;9.85;;
56455;SDS011;42354;53.218;6.564;2022-07-30T02:48:35;14.75;;;9.23;;
56455;SDS011;42354;53.218;6.564;2022-07-30T02:51:04;13.65;;;9.68;;
56455;SDS011;42354;53.218;6.564;2022-07-30T02:53:32;14.45;;;9.93;;
56455;SDS011;42354;53.218;6.564;2022-07-30T02:55:58;20.13;;;10.35;;
56455;SDS011;42354;53.218;6.564;2022-07-30T02:58:25;18.25;;;11.70;;
56455;SDS011;42354;53.218;6.564;2022-07-30T03:00:52;23.48;;;11.55;;
56455;SDS011;42354;53.218;6.564;2022-07-30T03:03:19;18.80;;;12.60;;
56455;SDS011;42354;53.218;6.564;2022-07-30T03:05:52;19.27;;;13.02;;
56455;SDS011;42354;53.218;6.564;2022-07-30T03:08:19;18.23;;;13.10;;
56455;SDS011;42354;53.218;6.564;2022-07-30T03:10:46;26.67;;;15.27;;
56455;SDS011;42354;53.218;6.564;2022-07-30T03:13:12;21.58;;;15.63;;
56455;SDS011;42354;53.218;6.564;2022-07-30T03:15:42;29.67;;;15.60;;
56455;SDS011;42354;53.218;6.564;2022-07-30T03:20:39;21.27;;;16.42;;
56455;SDS011;42354;53.218;6.564;2022-07-30T03:23:05;22.95;;;15.75;;
56455;SDS011;42354;53.218;6.564;2022-07-30T03:25:31;27.23;;;17.00;;
56455;SDS011;42354;53.218;6.564;2022-07-30T03:27:59;22.70;;;15.13;;
56455;SDS011;42354;53.218;6.564;2022-07-30T03:30:28;21.77;;;16.10;;
56455;SDS011;42354;53.218;6.564;2022-07-30T03:32:54;22.48;;;15.40;;
56455;SDS011;42354;53.218;6.564;2022-07-30T03:35:21;24.88;;;16.92;;
56455;SDS011;42354;53.218;6.564;2022-07-30T03:37:49;26.00;;;16.00;;
56455;SDS011;42354;53.218;6.564;2022-07-30T03:40:15;25.08;;;16.15;;
56455;SDS011;42354;53.218;6.564;2022-07-30T03:42:42;27.02;;;16.17;;
56455;SDS011;42354;53.218;6.564;2022-07-30T03:45:09;22.08;;;15.35;;
56455;SDS011;42354;53.218;6.564;2022-07-30T03:47:38;23.60;;;16.42;;
56455;SDS011;42354;53.218;6.564;2022-07-30T03:50:05;24.45;;;16.67;;
56455;SDS011;42354;53.218;6.564;2022-07-30T03:52:35;27.42;;;16.60;;
56455;SDS011;42354;53.218;6.564;2022-07-30T03:55:04;24.67;;;17.05;;
56455;SDS011;42354;53.218;6.564;2022-07-30T03:57:31;24.55;;;15.85;;
56455;SDS011;42354;53.218;6.564;2022-07-30T03:59:57;25.45;;;16.35;;
56455;SDS011;42354;53.218;6.564;2022-07-30T04:02:23;25.63;;;16.95;;
56455;SDS011;42354;53.218;6.564;2022-07-30T04:04:48;26.38;;;16.55;;
56455;SDS011;42354;53.218;6.564;2022-07-30T04:07:14;24.95;;;16.10;;
56455;SDS011;42354;53.218;6.564;2022-07-30T04:09:40;28.65;;;16.25;;
56455;SDS011;42354;53.218;6.564;2022-07-30T04:12:05;23.80;;;16.27;;
56455;SDS011;42354;53.218;6.564;2022-07-30T04:14:38;27.83;;;16.60;;
56455;SDS011;42354;53.218;6.564;2022-07-30T04:17:07;25.48;;;17.25;;
56455;SDS011;42354;53.218;6.564;2022-07-30T04:19:45;24.60;;;16.90;;
56455;SDS011;42354;53.218;6.564;2022-07-30T04:22:14;23.85;;;16.85;;
56455;SDS011;42354;53.218;6.564;2022-07-30T04:24:44;22.65;;;16.23;;
56455;SDS011;42354;53.218;6.564;2022-07-30T04:27:10;22.42;;;17.13;;
56455;SDS011;42354;53.218;6.564;2022-07-30T04:29:36;24.48;;;16.55;;
56455;SDS011;42354;53.218;6.564;2022-07-30T04:32:02;25.80;;;17.02;;
56455;SDS011;42354;53.218;6.564;2022-07-30T04:34:30;25.23;;;16.02;;
56455;SDS011;42354;53.218;6.564;2022-07-30T04:36:55;23.08;;;16.58;;
56455;SDS011;42354;53.218;6.564;2022-07-30T04:39:21;30.05;;;17.63;;
56455;SDS011;42354;53.218;6.564;2022-07-30T04:41:46;24.92;;;15.52;;
56455;SDS011;42354;53.218;6.564;2022-07-30T04:44:12;20.92;;;15.43;;
56455;SDS011;42354;53.218;6.564;2022-07-30T04:46:37;25.42;;;16.05;;
56455;SDS011;42354;53.218;6.564;2022-07-30T04:49:02;27.13;;;17.02;;
56455;SDS011;42354;53.218;6.564;2022-07-30T04:51:28;25.30;;;16.60;;
56455;SDS011;42354;53.218;6.564;2022-07-30T04:53:57;25.50;;;15.45;;
56455;SDS011;42354;53.218;6.564;2022-07-30T04:56:24;26.13;;;15.40;;
56455;SDS011;42354;53.218;6.564;2022-07-30T04:58:51;26.35;;;16.17;;
56455;SDS011;42354;53.218;6.564;2022-07-30T05:01:17;26.58;;;16.25;;
56455;SDS011;42354;53.218;6.564;2022-07-30T05:03:49;23.35;;;15.73;;
56455;SDS011;42354;53.218;6.564;2022-07-30T05:06:16;27.23;;;16.08;;
56455;SDS011;42354;53.218;6.564;2022-07-30T05:08:43;22.10;;;15.55;;
56455;SDS011;42354;53.218;6.564;2022-07-30T05:11:10;22.52;;;16.88;;
56455;SDS011;42354;53.218;6.564;2022-07-30T05:13:36;23.83;;;15.50;;
56455;SDS011;42354;53.218;6.564;2022-07-30T05:16:02;26.23;;;17.50;;
56455;SDS011;42354;53.218;6.564;2022-07-30T05:18:27;26.13;;;17.15;;
56455;SDS011;42354;53.218;6.564;2022-07-30T05:20:52;25.98;;;17.33;;
56455;SDS011;42354;53.218;6.564;2022-07-30T05:23:18;28.48;;;17.52;;
56455;SDS011;42354;53.218;6.564;2022-07-30T05:25:43;29.30;;;17.95;;
56455;SDS011;42354;53.218;6.564;2022-07-30T05:28:09;27.85;;;17.60;;
56455;SDS011;42354;53.218;6.564;2022-07-30T05:30:34;24.27;;;17.23;;
56455;SDS011;42354;53.218;6.564;2022-07-30T05:33:01;26.65;;;16.13;;
56455;SDS011;42354;53.218;6.564;2022-07-30T05:35:26;24.73;;;16.88;;
56455;SDS011;42354;53.218;6.564;2022-07-30T05:37:52;25.85;;;16.30;;
56455;SDS011;42354;53.218;6.564;2022-07-30T05:40:17;27.00;;;17.30;;
56455;SDS011;42354;53.218;6.564;2022-07-30T05:42:42;25.38;;;17.23;;
56455;SDS011;42354;53.218;6.564;2022-07-30T05:45:08;25.88;;;17.35;;
56455;SDS011;42354;53.218;6.564;2022-07-30T05:47:33;23.80;;;16.17;;
56455;SDS011;42354;53.218;6.564;2022-07-30T05:49:59;24.02;;;17.00;;
56455;SDS011;42354;53.218;6.564;2022-07-30T05:52:24;25.75;;;17.65;;
56455;SDS011;42354;53.218;6.564;2022-07-30T05:54:49;23.52;;;17.95;;
56455;SDS011;42354;53.218;6.564;2022-07-30T05:57:15;30.15;;;17.45;;
56455;SDS011;42354;53.218;6.564;2022-07-30T05:59:40;26.33;;;17.77;;
56455;SDS011;42354;53.218;6.564;2022-07-30T06:02:05;22.75;;;17.55;;
56455;SDS011;42354;53.218;6.564;2022-07-30T06:04:31;20.60;;;17.25;;
56455;SDS011;42354;53.218;6.564;2022-07-30T06:06:56;25.48;;;17.95;;
56455;SDS011;42354;53.218;6.564;2022-07-30T06:09:21;24.40;;;18.48;;
56455;SDS011;42354;53.218;6.564;2022-07-30T06:11:47;23.33;;;17.55;;
56455;SDS011;42354;53.218;6.564;2022-07-30T06:14:12;25.13;;;17.00;;
56455;SDS011;42354;53.218;6.564;2022-07-30T06:16:38;22.98;;;17.20;;
56455;SDS011;42354;53.218;6.564;2022-07-30T06:19:03;21.55;;;16.52;;
56455;SDS011;42354;53.218;6.564;2022-07-30T06:21:28;23.45;;;17.52;;
56455;SDS011;42354;53.218;6.564;2022-07-30T06:23:54;29.02;;;18.30;;
56455;SDS011;42354;53.218;6.564;2022-07-30T06:26:19;20.00;;;16.38;;
56455;SDS011;42354;53.218;6.564;2022-07-30T06:28:45;22.10;;;16.88;;
56455;SDS011;42354;53.218;6.564;2022-07-30T06:31:10;25.17;;;16.88;;
56455;SDS011;42354;53.218;6.564;2022-07-30T06:33:36;23.00;;;15.55;;
56455;SDS011;42354;53.218;6.564;2022-07-30T06:36:01;24.67;;;16.75;;
56455;SDS011;42354;53.218;6.564;2022-07-30T06:38:27;20.48;;;15.82;;
56455;SDS011;42354;53.218;6.564;2022-07-30T06:40:52;24.08;;;15.27;;
56455;SDS011;42354;53.218;6.564;2022-07-30T06:43:17;24.17;;;14.68;;
56455;SDS011;42354;53.218;6.564;2022-07-30T06:45:44;23.88;;;14.65;;
56455;SDS011;42354;53.218;6.564;2022-07-30T06:48:09;24.27;;;16.17;;
56455;SDS011;42354;53.218;6.564;2022-07-30T06:50:35;25.13;;;15.60;;
56455;SDS011;42354;53.218;6.564;2022-07-30T06:53:01;24.38;;;15.30;;
56455;SDS011;42354;53.218;6.564;2022-07-30T06:55:26;22.70;;;14.73;;
56455;SDS011;42354;53.218;6.564;2022-07-30T06:57:52;21.77;;;14.35;;
56455;SDS011;42354;53.218;6.564;2022-07-30T07:00:17;27.50;;;14.48;;
56455;SDS011;42354;53.218;6.564;2022-07-30T07:02:42;25.55;;;14.45;;
56455;SDS011;42354;53.218;6.564;2022-07-30T07:05:08;24.42;;;14.77;;
56455;SDS011;42354;53.218;6.564;2022-07-30T07:07:34;19.90;;;13.30;;
56455;SDS011;42354;53.218;6.564;2022-07-30T07:09:59;28.30;;;14.02;;
56455;SDS011;42354;53.218;6.564;2022-07-30T07:12:25;18.65;;;11.88;;
56455;SDS011;42354;53.218;6.564;2022-07-30T07:14:50;22.55;;;12.82;;
56455;SDS011;42354;53.218;6.564;2022-07-30T07:17:15;21.25;;;13.27;;
56455;SDS011;42354;53.218;6.564;2022-07-30T07:19:42;19.50;;;13.65;;
56455;SDS011;42354;53.218;6.564;2022-07-30T07:22:07;19.90;;;12.95;;
56455;SDS011;42354;53.218;6.564;2022-07-30T07:24:33;22.65;;;13.07;;
56455;SDS011;42354;53.218;6.564;2022-07-30T07:26:58;22.63;;;12.27;;
56455;SDS011;42354;53.218;6.564;2022-07-30T07:29:23;20.00;;;12.40;;
56455;SDS011;42354;53.218;6.564;2022-07-30T07:31:49;18.20;;;11.50;;
56455;SDS011;42354;53.218;6.564;2022-07-30T07:34:14;18.92;;;10.48;;
56455;SDS011;42354;53.218;6.564;2022-07-30T07:36:39;18.60;;;11.35;;
56455;SDS011;42354;53.218;6.564;2022-07-30T07:39:06;20.58;;;10.95;;
56455;SDS011;42354;53.218;6.564;2022-07-30T07:41:37;19.63;;;11.60;;
56455;SDS011;42354;53.218;6.564;2022-07-30T07:44:03;17.08;;;10.75;;
56455;SDS011;42354;53.218;6.564;2022-07-30T07:46:30;17.42;;;9.50;;
56455;SDS011;42354;53.218;6.564;2022-07-30T07:48:55;17.35;;;10.93;;
56455;SDS011;42354;53.218;6.564;2022-07-30T07:51:21;14.57;;;10.25;;
56455;SDS011;42354;53.218;6.564;2022-07-30T07:53:46;17.60;;;10.27;;
56455;SDS011;42354;53.218;6.564;2022-07-30T07:56:11;18.77;;;11.32;;
56455;SDS011;42354;53.218;6.564;2022-07-30T07:58:38;18.70;;;11.95;;
56455;SDS011;42354;53.218;6.564;2022-07-30T08:01:03;16.95;;;10.98;;
56455;SDS011;42354;53.218;6.564;2022-07-30T08:03:29;20.98;;;11.00;;
56455;SDS011;42354;53.218;6.564;2022-07-30T08:05:54;18.27;;;10.13;;
56455;SDS011;42354;53.218;6.564;2022-07-30T08:08:20;15.23;;;9.93;;
56455;SDS011;42354;53.218;6.564;2022-07-30T08:10:46;20.27;;;10.05;;
56455;SDS011;42354;53.218;6.564;2022-07-30T08:13:11;17.13;;;9.40;;
56455;SDS011;42354;53.218;6.564;2022-07-30T08:15:37;13.20;;;8.43;;
56455;SDS011;42354;53.218;6.564;2022-07-30T08:18:02;15.10;;;7.90;;
56455;SDS011;42354;53.218;6.564;2022-07-30T08:20:28;14.88;;;8.13;;
56455;SDS011;42354;53.218;6.564;2022-07-30T08:22:53;17.80;;;7.90;;
56455;SDS011;42354;53.218;6.564;2022-07-30T08:25:18;13.43;;;8.32;;
56455;SDS011;42354;53.218;6.564;2022-07-30T08:27:44;14.80;;;8.20;;
56455;SDS011;42354;53.218;6.564;2022-07-30T08:30:10;16.63;;;8.80;;
56455;SDS011;42354;53.218;6.564;2022-07-30T08:32:36;10.50;;;7.00;;
56455;SDS011;42354;53.218;6.564;2022-07-30T08:35:02;15.40;;;7.40;;
56455;SDS011;42354;53.218;6.564;2022-07-30T08:37:29;13.05;;;6.60;;
56455;SDS011;42354;53.218;6.564;2022-07-30T08:39:54;12.00;;;6.80;;
56455;SDS011;42354;53.218;6.564;2022-07-30T08:42:20;9.25;;;6.55;;
56455;SDS011;42354;53.218;6.564;2022-07-30T08:44:46;12.70;;;6.65;;
56455;SDS011;42354;53.218;6.564;2022-07-30T08:47:15;12.55;;;6.13;;
56455;SDS011;42354;53.218;6.564;2022-07-30T08:49:43;12.95;;;7.22;;
56455;SDS011;42354;53.218;6.564;2022-07-30T08:52:10;13.02;;;6.45;;
56455;SDS011;42354;53.218;6.564;2022-07-30T08:54:35;11.43;;;5.88;;
56455;SDS011;42354;53.218;6.564;2022-07-30T08:57:01;11.45;;;5.65;;
56455;SDS011;42354;53.218;6.564;2022-07-30T08:59:26;14.25;;;5.75;;
56455;SDS011;42354;53.218;6.564;2022-07-30T09:01:52;11.07;;;6.30;;
56455;SDS011;42354;53.218;6.564;2022-07-30T09:04:18;14.43;;;6.00;;
56455;SDS011;42354;53.218;6.564;2022-07-30T09:06:43;7.35;;;4.47;;
56455;SDS011;42354;53.218;6.564;2022-07-30T09:09:09;8.55;;;4.47;;
56455;SDS011;42354;53.218;6.564;2022-07-30T09:11:35;11.68;;;5.93;;
56455;SDS011;42354;53.218;6.564;2022-07-30T09:14:10;14.82;;;6.22;;
56455;SDS011;42354;53.218;6.564;2022-07-30T09:16:37;11.48;;;4.65;;
56455;SDS011;42354;53.218;6.564;2022-07-30T09:19:17;8.02;;;3.33;;
56455;SDS011;42354;53.218;6.564;2022-07-30T09:21:55;13.13;;;4.20;;
56455;SDS011;42354;53.218;6.564;2022-07-30T09:24:24;7.80;;;3.58;;
56455;SDS011;42354;53.218;6.564;2022-07-30T09:26:57;8.07;;;3.28;;
56455;SDS011;42354;53.218;6.564;2022-07-30T09:29:25;7.72;;;3.25;;
56455;SDS011;42354;53.218;6.564;2022-07-30T09:34:24;8.38;;;3.90;;
56455;SDS011;42354;53.218;6.564;2022-07-30T09:36:50;9.57;;;4.13;;
56455;SDS011;42354;53.218;6.564;2022-07-30T09:39:38;8.10;;;4.20;;
56455;SDS011;42354;53.218;6.564;2022-07-30T09:42:18;6.88;;;4.22;;
56455;SDS011;42354;53.218;6.564;2022-07-30T09:44:48;13.00;;;5.35;;
56455;SDS011;42354;53.218;6.564;2022-07-30T09:47:33;10.40;;;4.45;;
56455;SDS011;42354;53.218;6.564;2022-07-30T09:52:28;7.35;;;3.85;;
56455;SDS011;42354;53.218;6.564;2022-07-30T09:54:53;9.63;;;4.35;;
56455;SDS011;42354;53.218;6.564;2022-07-30T09:57:19;9.25;;;3.40;;
56455;SDS011;42354;53.218;6.564;2022-07-30T09:59:44;8.52;;;3.83;;
56455;SDS011;42354;53.218;6.564;2022-07-30T10:02:10;11.50;;;3.42;;
56455;SDS011;42354;53.218;6.564;2022-07-30T10:04:35;13.15;;;3.88;;
56455;SDS011;42354;53.218;6.564;2022-07-30T10:07:01;8.32;;;3.92;;
56455;SDS011;42354;53.218;6.564;2022-07-30T10:11:54;9.57;;;3.90;;
56455;SDS011;42354;53.218;6.564;2022-07-30T10:14:21;10.32;;;3.50;;
56455;SDS011;42354;53.218;6.564;2022-07-30T10:16:49;7.80;;;3.55;;
56455;SDS011;42354;53.218;6.564;2022-07-30T10:19:15;7.28;;;3.40;;
56455;SDS011;42354;53.218;6.564;2022-07-30T10:21:41;7.75;;;3.28;;
56455;SDS011;42354;53.218;6.564;2022-07-30T10:24:07;7.28;;;3.13;;
56455;SDS011;42354;53.218;6.564;2022-07-30T10:26:34;10.07;;;3.50;;
56455;SDS011;42354;53.218;6.564;2022-07-30T10:29:00;10.10;;;3.67;;
56455;SDS011;42354;53.218;6.564;2022-07-30T10:31:26;5.90;;;3.97;;
56455;SDS011;42354;53.218;6.564;2022-07-30T10:33:52;7.95;;;3.38;;
56455;SDS011;42354;53.218;6.564;2022-07-30T10:36:18;10.85;;;3.08;;
56455;SDS011;42354;53.218;6.564;2022-07-30T10:38:45;8.25;;;2.75;;
56455;SDS011;42354;53.218;6.564;2022-07-30T10:44:26;9.93;;;2.63;;
56455;SDS011;42354;53.218;6.564;2022-07-30T10:46:50;5.05;;;2.58;;
56455;SDS011;42354;53.218;6.564;2022-07-30T10:49:29;7.25;;;3.40;;
56455;SDS011;42354;53.218;6.564;2022-07-30T10:51:55;5.50;;;3.20;;
56455;SDS011;42354;53.218;6.564;2022-07-30T10:57:20;7.80;;;2.88;;
56455;SDS011;42354;53.218;6.564;2022-07-30T11:02:25;10.07;;;3.40;;
56455;SDS011;42354;53.218;6.564;2022-07-30T11:07:42;5.82;;;3.10;;
56455;SDS011;42354;53.218;6.564;2022-07-30T11:13:05;7.30;;;2.55;;
56455;SDS011;42354;53.218;6.564;2022-07-30T11:18:25;9.07;;;3.17;;
56455;SDS011;42354;53.218;6.564;2022-07-30T11:23:43;7.20;;;3.00;;
56455;SDS011;42354;53.218;6.564;2022-07-30T11:26:10;6.97;;;3.00;;
56455;SDS011;42354;53.218;6.564;2022-07-30T11:29:05;6.70;;;2.78;;
56455;SDS011;42354;53.218;6.564;2022-07-30T11:31:32;7.35;;;3.25;;
56455;SDS011;42354;53.218;6.564;2022-07-30T11:42:23;6.07;;;2.83;;
56455;SDS011;42354;53.218;6.564;2022-07-30T11:45:39;5.05;;;2.42;;
56455;SDS011;42354;53.218;6.564;2022-07-30T11:47:43;5.82;;;3.25;;
56455;SDS011;42354;53.218;6.564;2022-07-30T11:50:23;7.32;;;2.95;;
56455;SDS011;42354;53.218;6.564;2022-07-30T11:52:50;7.03;;;2.58;;
56455;SDS011;42354;53.218;6.564;2022-07-30T11:55:24;9.93;;;2.88;;
56455;SDS011;42354;53.218;6.564;2022-07-30T11:57:49;5.00;;;2.30;;
56455;SDS011;42354;53.218;6.564;2022-07-30T12:00:17;10.35;;;3.50;;
56455;SDS011;42354;53.218;6.564;2022-07-30T12:02:43;10.95;;;2.45;;
56455;SDS011;42354;53.218;6.564;2022-07-30T12:05:09;4.72;;;2.20;;
56455;SDS011;42354;53.218;6.564;2022-07-30T12:07:35;6.95;;;2.35;;
56455;SDS011;42354;53.218;6.564;2022-07-30T12:10:10;5.32;;;2.30;;
56455;SDS011;42354;53.218;6.564;2022-07-30T12:12:37;5.70;;;2.17;;
56455;SDS011;42354;53.218;6.564;2022-07-30T12:15:02;3.72;;;2.20;;
56455;SDS011;42354;53.218;6.564;2022-07-30T12:17:41;10.25;;;2.30;;
56455;SDS011;42354;53.218;6.564;2022-07-30T12:20:16;5.70;;;2.25;;
56455;SDS011;42354;53.218;6.564;2022-07-30T12:22:43;4.45;;;2.33;;
56455;SDS011;42354;53.218;6.564;2022-07-30T12:25:09;7.45;;;3.03;;
56455;SDS011;42354;53.218;6.564;2022-07-30T12:27:36;8.48;;;2.50;;
56455;SDS011;42354;53.218;6.564;2022-07-30T12:30:02;3.55;;;2.35;;
56455;SDS011;42354;53.218;6.564;2022-07-30T12:32:29;4.40;;;2.08;;
56455;SDS011;42354;53.218;6.564;2022-07-30T12:34:55;4.57;;;2.00;;
56455;SDS011;42354;53.218;6.564;2022-07-30T12:37:21;6.85;;;2.95;;
56455;SDS011;42354;53.218;6.564;2022-07-30T12:39:47;8.40;;;2.92;;
56455;SDS011;42354;53.218;6.564;2022-07-30T12:42:19;4.68;;;2.30;;
56455;SDS011;42354;53.218;6.564;2022-07-30T12:44:44;4.82;;;2.40;;
56455;SDS011;42354;53.218;6.564;2022-07-30T12:47:23;5.13;;;2.25;;
56455;SDS011;42354;53.218;6.564;2022-07-30T12:49:50;10.15;;;3.17;;
56455;SDS011;42354;53.218;6.564;2022-07-30T12:52:22;7.75;;;2.30;;
56455;SDS011;42354;53.218;6.564;2022-07-30T12:55:27;9.98;;;2.60;;
56455;SDS011;42354;53.218;6.564;2022-07-30T13:00:45;6.43;;;2.50;;
56455;SDS011;42354;53.218;6.564;2022-07-30T13:03:22;3.65;;;1.92;;
56455;SDS011;42354;53.218;6.564;2022-07-30T13:05:51;4.30;;;2.58;;
56455;SDS011;42354;53.218;6.564;2022-07-30T13:08:18;5.18;;;2.40;;
56455;SDS011;42354;53.218;6.564;2022-07-30T13:10:56;4.22;;;2.00;;
56455;SDS011;42354;53.218;6.564;2022-07-30T13:13:24;5.30;;;1.80;;
56455;SDS011;42354;53.218;6.564;2022-07-30T13:15:57;4.28;;;1.48;;
56455;SDS011;42354;53.218;6.564;2022-07-30T13:18:23;3.85;;;1.35;;
56455;SDS011;42354;53.218;6.564;2022-07-30T13:20:49;3.78;;;1.80;;
56455;SDS011;42354;53.218;6.564;2022-07-30T13:23:14;6.25;;;2.13;;
56455;SDS011;42354;53.218;6.564;2022-07-30T13:25:39;4.70;;;2.28;;
56455;SDS011;42354;53.218;6.564;2022-07-30T13:28:05;6.95;;;2.25;;
56455;SDS011;42354;53.218;6.564;2022-07-30T13:30:30;7.95;;;2.22;;
56455;SDS011;42354;53.218;6.564;2022-07-30T13:32:55;3.28;;;2.35;;
56455;SDS011;42354;53.218;6.564;2022-07-30T13:35:20;3.40;;;2.20;;
56455;SDS011;42354;53.218;6.564;2022-07-30T13:37:47;6.45;;;2.15;;
56455;SDS011;42354;53.218;6.564;2022-07-30T13:40:12;4.65;;;1.80;;
56455;SDS011;42354;53.218;6.564;2022-07-30T13:42:38;5.82;;;1.60;;
56455;SDS011;42354;53.218;6.564;2022-07-30T13:45:03;5.70;;;1.70;;
56455;SDS011;42354;53.218;6.564;2022-07-30T13:47:29;4.72;;;2.05;;
56455;SDS011;42354;53.218;6.564;2022-07-30T13:49:54;8.68;;;2.40;;
56455;SDS011;42354;53.218;6.564;2022-07-30T13:52:20;5.50;;;2.00;;
56455;SDS011;42354;53.218;6.564;2022-07-30T13:54:45;7.72;;;1.73;;
56455;SDS011;42354;53.218;6.564;2022-07-30T13:57:11;4.55;;;1.90;;
56455;SDS011;42354;53.218;6.564;2022-07-30T13:59:36;3.92;;;1.90;;
56455;SDS011;42354;53.218;6.564;2022-07-30T14:02:01;4.78;;;1.58;;
56455;SDS011;42354;53.218;6.564;2022-07-30T14:04:27;5.95;;;1.60;;
56455;SDS011;42354;53.218;6.564;2022-07-30T14:06:53;3.55;;;1.75;;
56455;SDS011;42354;53.218;6.564;2022-07-30T14:09:19;5.03;;;1.50;;
56455;SDS011;42354;53.218;6.564;2022-07-30T14:11:44;3.58;;;1.42;;
56455;SDS011;42354;53.218;6.564;2022-07-30T14:14:09;3.35;;;1.30;;
56455;SDS011;42354;53.218;6.564;2022-07-30T14:16:35;2.90;;;1.20;;
56455;SDS011;42354;53.218;6.564;2022-07-30T14:19:00;3.83;;;1.50;;
56455;SDS011;42354;53.218;6.564;2022-07-30T14:21:26;5.53;;;1.40;;
56455;SDS011;42354;53.218;6.564;2022-07-30T14:23:51;7.28;;;2.00;;
56455;SDS011;42354;53.218;6.564;2022-07-30T14:26:16;5.38;;;1.55;;
56455;SDS011;42354;53.218;6.564;2022-07-30T14:28:42;2.15;;;1.40;;
56455;SDS011;42354;53.218;6.564;2022-07-30T14:31:07;4.82;;;1.60;;
56455;SDS011;42354;53.218;6.564;2022-07-30T14:33:33;9.50;;;2.08;;
56455;SDS011;42354;53.218;6.564;2022-07-30T14:35:58;4.20;;;1.63;;
56455;SDS011;42354;53.218;6.564;2022-07-30T14:38:24;6.57;;;1.70;;
56455;SDS011;42354;53.218;6.564;2022-07-30T14:40:50;6.90;;;1.65;;
56455;SDS011;42354;53.218;6.564;2022-07-30T14:43:16;5.95;;;1.60;;
56455;SDS011;42354;53.218;6.564;2022-07-30T14:45:43;3.95;;;1.75;;
56455;SDS011;42354;53.218;6.564;2022-07-30T14:48:08;4.53;;;1.63;;
56455;SDS011;42354;53.218;6.564;2022-07-30T14:50:34;4.25;;;1.63;;
56455;SDS011;42354;53.218;6.564;2022-07-30T14:52:59;5.22;;;1.45;;
56455;SDS011;42354;53.218;6.564;2022-07-30T14:55:25;5.20;;;1.70;;
56455;SDS011;42354;53.218;6.564;2022-07-30T14:57:50;3.20;;;1.00;;
56455;SDS011;42354;53.218;6.564;2022-07-30T15:00:15;5.20;;;1.13;;
56455;SDS011;42354;53.218;6.564;2022-07-30T15:02:41;4.18;;;1.40;;
56455;SDS011;42354;53.218;6.564;2022-07-30T15:05:07;4.72;;;1.10;;
56455;SDS011;42354;53.218;6.564;2022-07-30T15:07:32;3.05;;;1.00;;
56455;SDS011;42354;53.218;6.564;2022-07-30T15:09:58;2.72;;;1.25;;
56455;SDS011;42354;53.218;6.564;2022-07-30T15:12:23;5.13;;;1.40;;
56455;SDS011;42354;53.218;6.564;2022-07-30T15:14:49;3.70;;;1.00;;
56455;SDS011;42354;53.218;6.564;2022-07-30T15:17:14;3.65;;;1.00;;